Time;durP1;ratioP1;P1;durP2;ratioP2;P2;SDS_P1;SDS_P2;PMS_P1;PMS_P2;Temp;Humidity;BMP_temperature;BMP_pressure;BME280_temperature;BME280_humidity;BME280_pressure;Samples;Min_cycle;Max_cycle;Signal;HPM_P1;HPM_P2
2021/08/27 00:02:11;;;;;;;3.10;1.12;;;18.40;62.20;;;;;;2360687;53;20954;-70
2021/08/27 00:04:37;;;;;;;2.80;1.10;;;18.40;62.10;;;;;;2612215;52;20930;-70
2021/08/27 00:07:04;;;;;;;3.50;1.00;;;18.40;62.10;;;;;;2487107;52;20954;-66
2021/08/27 00:09:30;;;;;;;2.28;1.10;;;18.40;62.10;;;;;;2357167;53;20931;-68
2021/08/27 00:11:57;;;;;;;2.90;1.10;;;18.40;62.10;;;;;;2359955;53;20946;-68
2021/08/27 00:14:23;;;;;;;3.67;1.10;;;18.40;62.10;;;;;;2454522;52;21018;-68
2021/08/27 00:16:49;;;;;;;3.45;1.20;;;18.40;62.10;;;;;;2445739;52;21041;-67
2021/08/27 00:19:16;;;;;;;6.55;1.10;;;18.40;62.20;;;;;;2353424;53;21006;-69
2021/08/27 00:21:42;;;;;;;3.58;1.20;;;18.40;62.20;;;;;;2594241;52;22054;-69
2021/08/27 00:24:12;;;;;;;3.08;1.10;;;18.40;62.20;;;;;;2337494;53;21557;-68
2021/08/27 00:26:38;;;;;;;2.97;1.10;;;18.40;62.10;;;;;;2360020;53;21108;-68
2021/08/27 00:29:04;;;;;;;3.30;1.10;;;18.40;62.20;;;;;;2361230;53;22010;-66
2021/08/27 00:31:30;;;;;;;3.70;1.17;;;18.40;62.20;;;;;;2360830;53;21510;-70
2021/08/27 00:33:57;;;;;;;2.62;1.02;;;18.40;62.20;;;;;;2336772;53;21012;-67
2021/08/27 00:36:24;;;;;;;4.00;1.10;;;18.40;62.20;;;;;;2361081;53;20914;-70
2021/08/27 00:38:50;;;;;;;2.97;1.50;;;18.40;62.30;;;;;;2360947;53;20982;-70
2021/08/27 00:41:17;;;;;;;2.08;1.05;;;18.40;62.40;;;;;;2360465;53;20943;-70
2021/08/27 00:43:43;;;;;;;3.15;1.00;;;18.40;62.30;;;;;;2340353;53;20966;-69
2021/08/27 00:46:09;;;;;;;2.17;0.95;;;18.50;62.40;;;;;;2358106;53;20963;-69
2021/08/27 00:48:36;;;;;;;2.03;0.90;;;18.40;62.30;;;;;;2360827;53;20978;-70
2021/08/27 00:51:02;;;;;;;2.67;0.90;;;18.40;62.30;;;;;;2364431;53;20938;-67
2021/08/27 00:53:28;;;;;;;1.70;0.70;;;18.50;62.40;;;;;;2353078;53;21080;-70
2021/08/27 00:55:55;;;;;;;2.40;1.10;;;18.50;62.40;;;;;;2340579;53;21010;-68
2021/08/27 00:58:21;;;;;;;2.58;1.02;;;18.50;62.40;;;;;;2341457;53;20990;-67
2021/08/27 01:00:49;;;;;;;2.90;1.15;;;18.50;62.50;;;;;;2584964;52;20969;-71
2021/08/27 01:03:18;;;;;;;2.62;0.85;;;18.50;62.40;;;;;;2347333;53;20970;-69
2021/08/27 01:05:47;;;;;;;3.05;1.20;;;18.50;62.40;;;;;;2351325;53;20934;-69
2021/08/27 01:08:29;;;;;;;2.87;0.93;;;18.40;62.30;;;;;;2360495;53;21509;-71
2021/08/27 01:11:01;;;;;;;4.30;1.05;;;18.40;62.40;;;;;;2312780;54;21063;-68
2021/08/27 01:14:30;;;;;;;4.82;1.33;;;18.40;62.30;;;;;;2303753;54;21064;-69
2021/08/27 01:17:04;;;;;;;3.08;1.27;;;18.50;62.40;;;;;;2359702;53;20972;-67
2021/08/27 01:20:07;;;;;;;2.65;1.15;;;18.40;62.20;;;;;;2353607;53;20976;-68
2021/08/27 01:22:58;;;;;;;4.18;1.73;;;18.40;62.20;;;;;;2356149;53;20942;-70
2021/08/27 01:25:25;;;;;;;3.20;1.50;;;18.40;62.20;;;;;;2355319;53;21049;-66
2021/08/27 01:27:52;;;;;;;4.07;1.60;;;18.40;62.20;;;;;;2356071;53;22455;-68
2021/08/27 01:30:30;;;;;;;3.17;1.30;;;18.40;62.30;;;;;;2516469;52;22042;-69
2021/08/27 01:33:10;;;;;;;3.05;1.00;;;18.40;62.50;;;;;;2325888;53;20976;-69
2021/08/27 01:35:37;;;;;;;2.80;1.27;;;18.40;62.60;;;;;;2330728;53;20964;-68
2021/08/27 01:38:05;;;;;;;2.37;1.15;;;18.30;62.40;;;;;;2612046;52;21449;-67
2021/08/27 01:40:31;;;;;;;2.45;1.10;;;18.30;62.50;;;;;;2589738;52;20993;-67
2021/08/27 01:42:57;;;;;;;3.30;1.30;;;18.30;62.60;;;;;;2354483;53;21032;-67
2021/08/27 01:45:23;;;;;;;2.40;1.02;;;18.30;62.60;;;;;;2349315;53;20914;-69
2021/08/27 01:47:50;;;;;;;2.45;1.05;;;18.30;62.60;;;;;;2352032;53;20925;-67
2021/08/27 01:50:16;;;;;;;2.42;0.90;;;18.30;62.70;;;;;;2337503;53;20971;-66
2021/08/27 01:52:42;;;;;;;3.65;1.12;;;18.30;62.70;;;;;;2335806;53;21583;-71
2021/08/27 01:55:09;;;;;;;2.78;1.05;;;18.30;62.70;;;;;;2355833;53;20927;-69
2021/08/27 01:57:36;;;;;;;2.22;0.82;;;18.30;62.70;;;;;;2451380;52;20934;-69
2021/08/27 02:00:05;;;;;;;2.50;0.95;;;18.30;62.80;;;;;;2348126;54;20946;-69
2021/08/27 02:02:31;;;;;;;2.28;0.90;;;18.40;62.80;;;;;;2461311;52;21396;-68
2021/08/27 02:04:59;;;;;;;2.20;0.90;;;18.30;62.70;;;;;;2360446;53;20966;-66
2021/08/27 02:07:28;;;;;;;2.87;1.00;;;18.30;62.70;;;;;;2355649;53;21054;-68
2021/08/27 02:09:57;;;;;;;2.95;1.25;;;18.30;62.60;;;;;;2347826;53;21220;-68
2021/08/27 02:12:23;;;;;;;3.42;1.00;;;18.30;62.60;;;;;;2356034;53;20954;-70
2021/08/27 02:14:52;;;;;;;3.08;0.90;;;18.30;62.50;;;;;;2356541;53;21037;-70
2021/08/27 02:17:18;;;;;;;3.37;1.20;;;18.30;62.60;;;;;;2355143;53;20959;-68
2021/08/27 02:19:44;;;;;;;3.17;1.10;;;18.30;62.50;;;;;;2356161;53;20993;-69
2021/08/27 02:22:13;;;;;;;2.67;0.85;;;18.30;62.50;;;;;;2351044;53;20961;-66
2021/08/27 02:25:07;;;;;;;3.45;1.10;;;18.20;62.40;;;;;;2354316;53;21033;-69
2021/08/27 02:27:34;;;;;;;5.07;1.40;;;18.20;62.50;;;;;;2349375;53;20946;-68
2021/08/27 02:30:00;;;;;;;4.05;1.27;;;18.20;62.50;;;;;;2605910;52;21510;-68
2021/08/27 02:32:29;;;;;;;3.42;1.02;;;18.20;62.60;;;;;;2354870;53;21084;-67
2021/08/27 02:35:00;;;;;;;3.35;1.10;;;18.20;62.60;;;;;;2333339;53;20992;-66
2021/08/27 02:37:28;;;;;;;2.50;1.05;;;18.20;62.70;;;;;;2345484;53;21474;-68
2021/08/27 02:39:57;;;;;;;2.35;1.05;;;18.20;62.70;;;;;;2355403;53;20926;-69
2021/08/27 02:42:27;;;;;;;2.83;1.00;;;18.20;62.70;;;;;;2362005;53;21027;-68
2021/08/27 02:44:57;;;;;;;2.97;1.20;;;18.20;62.80;;;;;;2349012;53;20938;-69
2021/08/27 02:47:24;;;;;;;2.90;1.23;;;18.20;62.90;;;;;;2352467;53;20946;-69
2021/08/27 02:49:50;;;;;;;3.28;1.33;;;18.10;62.80;;;;;;2591577;52;20988;-70
2021/08/27 02:53:51;;;;;;;3.55;1.30;;;18.10;62.90;;;;;;2350973;53;20934;-67
2021/08/27 02:56:21;;;;;;;2.50;1.30;;;18.10;63.10;;;;;;2319911;53;20920;-70
2021/08/27 02:58:49;;;;;;;2.35;1.15;;;18.10;63.00;;;;;;2350104;53;21867;-69
2021/08/27 03:01:37;;;;;;;3.75;1.55;;;18.10;63.10;;;;;;2347462;53;21823;-68
2021/08/27 03:05:06;;;;;;;3.12;1.20;;;18.20;63.30;;;;;;2606279;52;21021;-67
2021/08/27 03:07:32;;;;;;;2.67;1.10;;;18.20;63.20;;;;;;2356163;53;21105;-70
2021/08/27 03:10:11;;;;;;;2.85;1.10;;;18.10;63.00;;;;;;2355646;53;20946;-67
2021/08/27 03:13:41;;;;;;;3.08;1.45;;;18.20;63.30;;;;;;2355739;53;20946;-69
2021/08/27 03:16:10;;;;;;;2.83;1.00;;;18.10;63.40;;;;;;2348196;53;20985;-69
2021/08/27 03:19:00;;;;;;;2.65;1.02;;;18.20;63.30;;;;;;2355264;53;20914;-70
2021/08/27 03:22:13;;;;;;;3.28;1.20;;;18.20;63.40;;;;;;2359364;53;20922;-67
2021/08/27 03:24:53;;;;;;;3.37;1.23;;;18.20;63.40;;;;;;2349757;53;20914;-69
2021/08/27 03:27:21;;;;;;;3.10;1.05;;;18.20;63.50;;;;;;2355689;53;20910;-68
2021/08/27 03:29:54;;;;;;;3.40;1.45;;;18.20;63.40;;;;;;2358797;53;20925;-69
2021/08/27 03:32:23;;;;;;;2.22;1.05;;;18.20;63.50;;;;;;2347842;53;21054;-68
2021/08/27 03:34:49;;;;;;;2.72;1.00;;;18.20;63.60;;;;;;2340035;54;20977;-67
2021/08/27 03:37:17;;;;;;;3.45;1.20;;;18.20;63.60;;;;;;2333203;53;20946;-67
2021/08/27 03:39:43;;;;;;;2.87;1.10;;;18.20;63.60;;;;;;2341133;54;21004;-68
2021/08/27 03:42:10;;;;;;;3.65;1.00;;;18.20;63.60;;;;;;2335873;53;21567;-67
2021/08/27 03:44:36;;;;;;;4.05;1.20;;;18.20;63.60;;;;;;2336836;53;20941;-68
2021/08/27 03:47:02;;;;;;;2.92;1.30;;;18.20;63.60;;;;;;2307346;53;20951;-67
2021/08/27 03:49:29;;;;;;;2.60;1.05;;;18.20;63.60;;;;;;2588344;52;20939;-68
2021/08/27 03:51:56;;;;;;;2.50;0.95;;;18.20;63.60;;;;;;2334951;53;22214;-69
2021/08/27 03:54:23;;;;;;;3.15;0.95;;;18.20;63.70;;;;;;2332743;53;20998;-70
2021/08/27 03:56:49;;;;;;;3.92;1.50;;;18.20;63.70;;;;;;2355743;52;21283;-68
2021/08/27 03:59:19;;;;;;;2.50;0.98;;;18.30;63.80;;;;;;2584424;52;21522;-68
2021/08/27 04:01:45;;;;;;;2.50;1.17;;;18.30;63.80;;;;;;2346343;53;20982;-68
2021/08/27 04:04:21;;;;;;;3.65;0.95;;;18.30;63.80;;;;;;2342178;53;20927;-68
2021/08/27 04:06:57;;;;;;;3.12;0.80;;;18.30;64.00;;;;;;2336906;53;21004;-67
2021/08/27 04:09:25;;;;;;;3.33;1.20;;;18.30;64.00;;;;;;2319133;53;20978;-70
2021/08/27 04:11:52;;;;;;;2.47;1.17;;;18.30;63.80;;;;;;2345476;53;21253;-70
2021/08/27 04:14:18;;;;;;;3.47;1.50;;;18.30;63.80;;;;;;2338818;53;21036;-68
2021/08/27 04:16:44;;;;;;;3.95;1.20;;;18.30;63.80;;;;;;2359656;53;21189;-68
2021/08/27 04:19:12;;;;;;;3.47;1.30;;;18.30;63.80;;;;;;2346066;53;20946;-71
2021/08/27 04:21:41;;;;;;;4.03;1.60;;;18.30;63.70;;;;;;2341947;53;21028;-71
2021/08/27 04:24:08;;;;;;;3.28;1.55;;;18.30;63.70;;;;;;2341138;53;20951;-68
2021/08/27 04:26:34;;;;;;;4.53;1.80;;;18.30;63.60;;;;;;2345052;53;20969;-72
2021/08/27 04:29:01;;;;;;;3.67;1.55;;;18.30;63.60;;;;;;2337504;53;21012;-68
2021/08/27 04:31:27;;;;;;;4.05;1.37;;;18.30;63.50;;;;;;2336448;53;20935;-67
2021/08/27 04:33:54;;;;;;;3.70;1.60;;;18.30;63.60;;;;;;2345102;53;22194;-68
2021/08/27 04:36:21;;;;;;;4.05;1.80;;;18.30;63.60;;;;;;2345639;53;20938;-72
2021/08/27 04:38:48;;;;;;;3.72;1.37;;;18.30;63.60;;;;;;2344988;53;20981;-69
2021/08/27 04:41:16;;;;;;;3.22;1.40;;;18.20;63.60;;;;;;2338834;53;22344;-68
2021/08/27 04:43:42;;;;;;;3.78;1.77;;;18.20;63.60;;;;;;2343976;53;20930;-70
2021/08/27 04:46:11;;;;;;;3.78;1.50;;;18.20;63.60;;;;;;2345526;53;21001;-71
2021/08/27 04:48:38;;;;;;;4.05;1.40;;;18.20;63.70;;;;;;2345048;53;20934;-67
2021/08/27 04:51:04;;;;;;;3.60;1.42;;;18.20;63.90;;;;;;2346092;53;20937;-71
2021/08/27 04:53:30;;;;;;;4.70;1.58;;;18.10;63.80;;;;;;2345747;53;20946;-68
2021/08/27 04:55:56;;;;;;;3.20;1.40;;;18.20;64.00;;;;;;2345935;53;21033;-71
2021/08/27 04:58:25;;;;;;;2.95;1.25;;;18.10;64.00;;;;;;2345826;53;20914;-67
2021/08/27 05:00:52;;;;;;;2.60;1.20;;;18.20;64.20;;;;;;2345772;53;20951;-71
2021/08/27 05:03:19;;;;;;;3.10;1.55;;;18.10;64.20;;;;;;2348640;53;21355;-69
2021/08/27 05:05:46;;;;;;;3.65;1.73;;;18.10;64.20;;;;;;2335688;53;21049;-68
2021/08/27 05:08:12;;;;;;;4.25;1.42;;;18.10;64.20;;;;;;2349230;53;22129;-68
2021/08/27 05:10:39;;;;;;;4.40;1.55;;;18.10;64.20;;;;;;2606530;52;20943;-70
2021/08/27 05:13:05;;;;;;;3.47;1.83;;;18.10;64.30;;;;;;2446556;52;20940;-70
2021/08/27 05:15:31;;;;;;;3.78;2.10;;;18.10;64.30;;;;;;2348723;53;21005;-67
2021/08/27 05:17:57;;;;;;;3.83;1.80;;;18.10;64.30;;;;;;2345751;53;20945;-71
2021/08/27 05:20:24;;;;;;;3.87;1.40;;;18.10;64.30;;;;;;2339640;53;20985;-70
2021/08/27 05:22:50;;;;;;;2.92;1.50;;;18.10;64.40;;;;;;2335436;53;20951;-71
2021/08/27 05:25:17;;;;;;;3.08;1.65;;;18.10;64.40;;;;;;2595184;52;20954;-68
2021/08/27 05:27:44;;;;;;;3.25;1.60;;;18.10;64.40;;;;;;2345288;53;21151;-68
2021/08/27 05:30:11;;;;;;;3.05;1.73;;;18.10;64.40;;;;;;2338388;53;21046;-71
2021/08/27 05:32:38;;;;;;;3.60;1.70;;;18.20;64.50;;;;;;2573077;52;21028;-67
2021/08/27 05:35:05;;;;;;;3.53;1.67;;;18.20;64.50;;;;;;2311592;53;20961;-67
2021/08/27 05:37:31;;;;;;;4.15;1.73;;;18.10;64.50;;;;;;2331469;54;20986;-70
2021/08/27 05:39:57;;;;;;;3.70;1.83;;;18.20;64.60;;;;;;2338499;53;21302;-69
2021/08/27 05:42:24;;;;;;;3.55;1.67;;;18.20;64.60;;;;;;2317578;53;20952;-70
2021/08/27 05:44:50;;;;;;;3.80;2.00;;;18.10;64.50;;;;;;2470316;52;21032;-67
2021/08/27 05:47:18;;;;;;;3.35;1.87;;;18.20;64.60;;;;;;2343896;53;21071;-69
2021/08/27 05:49:45;;;;;;;3.72;1.85;;;18.20;64.50;;;;;;2344173;53;20928;-69
2021/08/27 05:52:11;;;;;;;5.15;1.98;;;18.20;64.40;;;;;;2353618;53;21443;-69
2021/08/27 05:54:38;;;;;;;4.18;1.95;;;18.20;64.50;;;;;;2580107;52;20926;-68
2021/08/27 05:57:04;;;;;;;3.92;1.92;;;18.20;64.50;;;;;;2345672;53;21101;-68
2021/08/27 05:59:30;;;;;;;3.78;1.83;;;18.20;64.60;;;;;;2344149;53;20978;-68
2021/08/27 06:02:36;;;;;;;3.70;1.65;;;18.20;64.50;;;;;;2595045;52;21061;-69
2021/08/27 06:05:03;;;;;;;3.50;1.77;;;18.20;64.80;;;;;;2594938;52;20950;-72
2021/08/27 06:07:29;;;;;;;3.53;1.80;;;18.20;64.50;;;;;;2345625;53;21183;-66
2021/08/27 06:09:56;;;;;;;3.50;1.90;;;18.20;64.60;;;;;;2337492;53;21000;-70
2021/08/27 06:12:22;;;;;;;3.83;1.80;;;18.20;64.60;;;;;;2345274;53;20935;-68
2021/08/27 06:14:49;;;;;;;5.32;2.17;;;18.20;64.60;;;;;;2475875;52;20939;-67
2021/08/27 06:17:15;;;;;;;4.60;2.58;;;18.20;64.60;;;;;;2345146;53;20966;-69
2021/08/27 06:19:41;;;;;;;5.05;2.40;;;18.20;64.50;;;;;;2381261;52;20953;-70
2021/08/27 06:22:08;;;;;;;4.50;2.20;;;18.20;64.40;;;;;;2339470;53;20990;-69
2021/08/27 06:24:34;;;;;;;4.30;1.98;;;18.20;64.30;;;;;;2489003;52;20942;-69
2021/08/27 06:27:03;;;;;;;3.58;1.58;;;18.00;64.20;;;;;;2345511;53;20974;-67
2021/08/27 06:29:42;;;;;;;2.92;1.60;;;18.10;64.20;;;;;;2602379;52;20936;-69
2021/08/27 06:32:08;;;;;;;3.95;1.83;;;18.10;64.40;;;;;;2363987;53;21598;-67
2021/08/27 06:34:35;;;;;;;3.60;1.62;;;18.10;64.60;;;;;;2341476;52;21440;-68
2021/08/27 06:37:01;;;;;;;4.32;1.75;;;18.10;64.70;;;;;;2354029;53;20968;-70
2021/08/27 06:39:28;;;;;;;3.75;1.90;;;18.00;64.70;;;;;;2584844;52;20938;-69
2021/08/27 06:41:54;;;;;;;4.03;1.73;;;18.10;64.90;;;;;;2334842;53;21096;-67
2021/08/27 06:44:21;;;;;;;4.18;2.17;;;18.10;65.00;;;;;;2354472;52;21562;-68
2021/08/27 06:46:47;;;;;;;3.30;1.77;;;18.20;65.20;;;;;;2334423;53;20977;-70
2021/08/27 06:49:14;;;;;;;3.80;1.73;;;18.10;65.20;;;;;;2544702;52;21041;-67
2021/08/27 06:51:41;;;;;;;3.53;1.80;;;18.20;65.30;;;;;;2345764;53;21491;-68
2021/08/27 06:54:08;;;;;;;3.58;2.12;;;18.20;65.30;;;;;;2345890;53;20930;-69
2021/08/27 06:56:34;;;;;;;3.87;1.62;;;18.20;65.30;;;;;;2397057;52;20925;-69
2021/08/27 06:59:01;;;;;;;4.03;2.33;;;18.20;65.40;;;;;;2407413;52;21454;-68
2021/08/27 07:01:27;;;;;;;5.32;2.28;;;18.30;65.60;;;;;;2310136;53;20967;-70
2021/08/27 07:03:54;;;;;;;4.15;2.10;;;18.30;65.70;;;;;;2346198;53;21490;-70
2021/08/27 07:06:21;;;;;;;4.10;2.12;;;18.30;65.70;;;;;;2337203;53;21006;-70
2021/08/27 07:08:47;;;;;;;4.93;1.95;;;18.40;65.90;;;;;;2346459;53;20945;-68
2021/08/27 07:11:15;;;;;;;4.60;2.10;;;18.40;65.70;;;;;;2336795;53;21070;-70
2021/08/27 07:13:45;;;;;;;4.22;2.47;;;18.50;65.70;;;;;;2399620;52;20922;-71
2021/08/27 07:16:12;;;;;;;3.78;2.03;;;18.50;65.60;;;;;;2345308;53;20927;-71
2021/08/27 07:18:40;;;;;;;5.68;2.50;;;18.60;65.60;;;;;;2388008;52;20926;-69
2021/08/27 07:21:07;;;;;;;4.62;2.30;;;18.60;65.40;;;;;;2346344;53;20942;-70
2021/08/27 07:23:34;;;;;;;4.82;2.30;;;18.60;65.20;;;;;;2399649;52;21738;-69
2021/08/27 07:26:00;;;;;;;4.95;2.40;;;18.70;65.30;;;;;;2318330;53;20997;-70
2021/08/27 07:28:27;;;;;;;4.20;2.30;;;18.70;65.20;;;;;;2347390;53;21355;-71
2021/08/27 07:30:53;;;;;;;4.85;2.65;;;18.70;65.00;;;;;;2327029;53;21233;-67
2021/08/27 07:33:20;;;;;;;6.45;2.60;;;18.80;64.80;;;;;;2350863;52;21021;-68
2021/08/27 07:35:47;;;;;;;3.95;2.08;;;18.80;64.80;;;;;;2362633;53;20977;-71
2021/08/27 07:38:13;;;;;;;6.37;2.42;;;18.90;64.90;;;;;;2366536;52;20926;-71
2021/08/27 07:40:39;;;;;;;5.35;2.92;;;18.90;64.80;;;;;;2345271;53;21081;-71
2021/08/27 07:43:06;;;;;;;4.72;2.30;;;18.90;64.60;;;;;;2570973;52;21076;-69
2021/08/27 07:45:33;;;;;;;4.28;2.28;;;18.90;64.50;;;;;;2349050;53;20926;-70
2021/08/27 07:47:59;;;;;;;4.68;2.72;;;18.90;64.40;;;;;;2517569;52;22083;-70
2021/08/27 07:50:25;;;;;;;6.22;2.83;;;18.90;64.30;;;;;;2349699;53;21021;-70
2021/08/27 07:52:52;;;;;;;4.53;2.40;;;18.90;64.30;;;;;;2339886;53;21912;-67
2021/08/27 07:55:20;;;;;;;4.65;2.50;;;18.90;64.30;;;;;;2344450;53;21333;-68
2021/08/27 07:57:47;;;;;;;4.10;2.42;;;18.90;64.30;;;;;;2412119;52;20911;-70
2021/08/27 08:00:13;;;;;;;4.03;2.25;;;18.90;64.40;;;;;;2442518;52;21552;-69
2021/08/27 08:02:40;;;;;;;5.55;2.37;;;19.00;64.70;;;;;;2339882;53;20941;-70
2021/08/27 08:05:08;;;;;;;5.05;2.65;;;19.10;65.00;;;;;;2343382;53;21049;-71
2021/08/27 08:07:34;;;;;;;4.97;2.85;;;19.00;65.00;;;;;;2438569;52;21019;-68
2021/08/27 08:10:00;;;;;;;4.55;2.92;;;19.00;65.20;;;;;;2345821;53;20930;-68
2021/08/27 08:12:27;;;;;;;5.25;2.60;;;19.10;65.40;;;;;;2451830;52;22207;-71
2021/08/27 08:14:54;;;;;;;4.80;2.37;;;19.20;65.50;;;;;;2343379;53;20938;-71
2021/08/27 08:17:20;;;;;;;5.87;1.83;;;19.30;65.40;;;;;;2582724;52;20957;-70
2021/08/27 08:19:46;;;;;;;5.03;2.37;;;19.40;65.20;;;;;;2343288;53;20926;-68
2021/08/27 08:22:13;;;;;;;5.28;2.50;;;19.40;64.90;;;;;;2436586;52;20982;-71
2021/08/27 08:24:39;;;;;;;5.50;1.92;;;19.40;64.60;;;;;;2345352;53;20942;-70
2021/08/27 08:27:06;;;;;;;4.12;1.87;;;19.50;64.70;;;;;;2563383;52;20984;-71
2021/08/27 08:29:32;;;;;;;4.72;1.92;;;19.50;64.70;;;;;;2564077;52;21273;-67
2021/08/27 08:31:58;;;;;;;4.57;1.98;;;19.50;64.90;;;;;;2411552;52;21662;-70
2021/08/27 08:34:25;;;;;;;4.43;2.22;;;19.60;64.80;;;;;;2337668;53;21540;-69
2021/08/27 08:36:52;;;;;;;7.22;2.30;;;19.70;64.90;;;;;;2593747;52;21054;-70
2021/08/27 08:39:18;;;;;;;5.60;2.47;;;19.70;64.50;;;;;;2357803;53;20940;-70
2021/08/27 08:41:46;;;;;;;5.95;2.42;;;19.70;64.50;;;;;;2374459;52;21050;-70
2021/08/27 08:44:13;;;;;;;5.95;2.25;;;19.80;64.60;;;;;;2345357;53;20926;-69
2021/08/27 08:46:40;;;;;;;3.92;1.62;;;19.90;64.50;;;;;;2595429;52;20927;-69
2021/08/27 08:49:07;;;;;;;4.35;1.50;;;19.90;64.20;;;;;;2345953;53;21396;-67
2021/08/27 08:51:33;;;;;;;3.92;1.35;;;20.00;63.90;;;;;;2347612;53;20954;-67
2021/08/27 08:54:00;;;;;;;4.18;1.50;;;20.00;63.60;;;;;;2335468;53;20930;-69
2021/08/27 08:56:26;;;;;;;4.45;1.55;;;20.00;63.40;;;;;;2475565;52;21033;-68
2021/08/27 08:58:54;;;;;;;3.30;1.30;;;20.10;63.20;;;;;;2334744;53;20935;-67
2021/08/27 09:01:20;;;;;;;3.15;1.40;;;20.10;62.90;;;;;;2345853;53;20918;-72
2021/08/27 09:03:46;;;;;;;4.45;1.30;;;20.10;62.80;;;;;;2345606;53;22016;-70
2021/08/27 09:06:13;;;;;;;3.30;1.48;;;20.10;62.60;;;;;;2345876;53;20933;-67
2021/08/27 09:08:45;;;;;;;4.00;1.42;;;20.20;62.60;;;;;;2324817;53;20937;-67
2021/08/27 09:11:19;;;;;;;2.75;1.50;;;20.10;62.50;;;;;;2329863;53;21045;-68
2021/08/27 09:13:46;;;;;;;3.60;1.37;;;20.10;62.50;;;;;;2572608;52;21001;-67
2021/08/27 09:16:13;;;;;;;4.00;1.60;;;20.10;62.60;;;;;;2338184;54;20997;-69
2021/08/27 09:18:40;;;;;;;4.22;1.67;;;20.20;62.70;;;;;;2345569;53;20915;-70
2021/08/27 09:21:47;;;;;;;3.15;1.70;;;20.20;62.70;;;;;;2345819;53;21415;-71
2021/08/27 09:24:17;;;;;;;3.22;1.40;;;20.20;62.40;;;;;;2327674;54;20952;-68
2021/08/27 09:26:49;;;;;;;4.28;1.45;;;20.20;62.60;;;;;;2406085;53;20943;-70
2021/08/27 09:32:47;;;;;;;3.75;1.23;;;20.20;62.50;;;;;;2348519;53;21364;-70
2021/08/27 09:35:16;;;;;;;2.80;0.98;;;20.40;62.30;;;;;;2331974;53;20953;-70
2021/08/27 09:37:54;;;;;;;2.80;1.00;;;20.50;63.20;;;;;;2348615;53;20997;-72
2021/08/27 09:40:28;;;;;;;3.03;1.00;;;20.60;62.80;;;;;;2338124;53;21042;-72
2021/08/27 09:42:55;;;;;;;2.53;1.08;;;20.60;62.60;;;;;;2307401;54;21061;-71
2021/08/27 09:45:45;;;;;;;3.50;1.08;;;20.70;62.70;;;;;;2330356;53;20941;-68
2021/08/27 09:48:13;;;;;;;3.15;1.25;;;20.80;61.70;;;;;;2360308;53;20972;-69
2021/08/27 09:50:44;;;;;;;4.95;1.27;;;20.80;62.10;;;;;;2496332;52;21453;-70
2021/08/27 09:53:11;;;;;;;4.15;1.37;;;20.80;61.90;;;;;;2344864;53;20942;-69
2021/08/27 09:55:39;;;;;;;3.17;1.40;;;20.90;61.90;;;;;;2344885;53;20935;-72
2021/08/27 09:58:12;;;;;;;2.97;1.30;;;20.90;61.80;;;;;;2318628;53;21545;-69
2021/08/27 10:01:06;;;;;;;2.60;1.23;;;21.00;61.60;;;;;;2456417;52;21533;-71
2021/08/27 10:03:32;;;;;;;2.67;1.37;;;21.10;61.50;;;;;;2354310;53;21221;-72
2021/08/27 10:06:02;;;;;;;5.22;1.30;;;21.20;62.00;;;;;;2372640;52;21490;-69
2021/08/27 10:08:29;;;;;;;3.35;1.17;;;21.30;61.80;;;;;;2344861;53;21458;-72
2021/08/27 10:10:57;;;;;;;3.75;1.50;;;21.40;61.50;;;;;;2338101;54;22099;-71
2021/08/27 10:13:24;;;;;;;2.70;1.10;;;21.50;61.50;;;;;;2346854;53;22126;-70
2021/08/27 10:15:52;;;;;;;2.92;1.20;;;21.60;61.50;;;;;;2306120;53;20985;-72
2021/08/27 10:18:18;;;;;;;3.45;1.17;;;21.70;61.60;;;;;;2337907;53;21009;-72
2021/08/27 10:20:46;;;;;;;3.45;1.20;;;21.80;61.40;;;;;;2327791;53;20922;-70
2021/08/27 10:23:14;;;;;;;2.03;1.00;;;21.90;61.10;;;;;;2449250;52;20978;-72
2021/08/27 10:25:41;;;;;;;3.60;1.17;;;21.90;60.30;;;;;;2345828;53;21034;-69
2021/08/27 10:28:07;;;;;;;2.65;1.20;;;21.90;59.80;;;;;;2345562;53;20946;-72
2021/08/27 10:30:50;;;;;;;3.85;1.35;;;21.90;59.40;;;;;;2345055;53;20946;-72
2021/08/27 10:33:17;;;;;;;2.55;1.20;;;22.00;58.90;;;;;;2593368;52;21069;-71
2021/08/27 10:35:52;;;;;;;3.40;1.30;;;22.00;59.50;;;;;;2571916;52;20985;-70
2021/08/27 10:38:46;;;;;;;3.33;1.33;;;22.00;59.80;;;;;;2344238;53;20946;-70
2021/08/27 10:41:17;;;;;;;2.30;0.93;;;22.10;58.80;;;;;;2436396;52;22103;-72
2021/08/27 10:44:09;;;;;;;2.72;1.10;;;22.10;59.40;;;;;;2592521;52;20974;-71
2021/08/27 10:47:12;;;;;;;3.90;1.52;;;22.20;59.10;;;;;;2389874;53;20946;-69
2021/08/27 10:50:11;;;;;;;3.10;1.17;;;22.20;58.30;;;;;;2346837;53;21109;-71
2021/08/27 10:52:38;;;;;;;3.03;1.42;;;22.20;57.70;;;;;;2336216;53;21047;-71
2021/08/27 10:55:14;;;;;;;3.72;1.20;;;22.20;58.20;;;;;;2338151;53;20917;-71
2021/08/27 10:57:49;;;;;;;3.55;1.08;;;22.20;57.50;;;;;;2418405;52;21390;-72
2021/08/27 11:00:51;;;;;;;2.78;1.23;;;22.10;57.30;;;;;;2339006;53;21994;-72
2021/08/27 11:03:19;;;;;;;3.80;1.12;;;22.10;57.10;;;;;;2414811;52;21050;-70
2021/08/27 11:05:46;;;;;;;4.62;1.17;;;22.00;57.70;;;;;;2346084;53;22030;-71
2021/08/27 11:08:14;;;;;;;2.47;0.82;;;22.00;57.60;;;;;;2346398;53;21452;-70
2021/08/27 11:10:51;;;;;;;3.03;1.10;;;22.00;57.70;;;;;;2347221;53;22094;-69
2021/08/27 11:13:18;;;;;;;2.65;1.17;;;22.10;58.00;;;;;;2373208;52;21540;-68
2021/08/27 11:15:44;;;;;;;2.62;1.00;;;22.20;58.00;;;;;;2338221;53;20957;-75
2021/08/27 11:18:23;;;;;;;2.47;1.23;;;22.20;57.70;;;;;;2527695;52;20988;-69
2021/08/27 11:20:50;;;;;;;3.47;1.00;;;22.30;56.60;;;;;;2412919;52;20930;-71
2021/08/27 11:23:18;;;;;;;2.40;0.90;;;22.30;57.00;;;;;;2315289;53;1866879;-71
2021/08/27 11:26:03;;;;;;;2.72;1.00;;;22.30;57.00;;;;;;2347744;53;20981;-71
2021/08/27 11:28:32;;;;;;;2.03;0.93;;;22.40;56.00;;;;;;2339472;53;20929;-69
2021/08/27 11:31:09;;;;;;;2.20;0.90;;;22.40;56.90;;;;;;2346246;53;20926;-69
2021/08/27 11:34:08;;;;;;;1.60;0.73;;;22.50;56.90;;;;;;2338769;54;20954;-69
2021/08/27 11:36:35;;;;;;;2.58;1.00;;;22.60;56.40;;;;;;2347124;53;20961;-70
2021/08/27 11:39:01;;;;;;;2.12;1.00;;;22.60;57.50;;;;;;2343597;53;21434;-71
2021/08/27 11:41:27;;;;;;;2.58;1.00;;;22.60;56.40;;;;;;2344994;53;21032;-70
2021/08/27 11:44:03;;;;;;;1.95;0.77;;;22.60;56.00;;;;;;2339924;53;21478;-70
2021/08/27 11:46:31;;;;;;;2.65;0.80;;;22.60;55.10;;;;;;2347659;53;21753;-71
2021/08/27 11:49:09;;;;;;;3.62;1.20;;;22.50;55.20;;;;;;2317821;53;20977;-70
2021/08/27 11:51:40;;;;;;;3.22;0.82;;;22.50;54.60;;;;;;2338414;54;21017;-69
2021/08/27 11:54:22;;;;;;;1.92;0.60;;;22.40;55.00;;;;;;2339075;54;21541;-73
2021/08/27 11:56:52;;;;;;;2.17;0.73;;;22.40;54.60;;;;;;2361126;53;20920;-69
2021/08/27 11:59:23;;;;;;;2.50;0.98;;;22.30;55.30;;;;;;2346547;53;20946;-73
2021/08/27 12:01:49;;;;;;;2.20;0.80;;;22.30;55.20;;;;;;2343982;53;21017;-69
2021/08/27 12:04:23;;;;;;;1.83;0.80;;;22.30;56.40;;;;;;2340185;53;20946;-71
2021/08/27 12:07:20;;;;;;;3.35;1.02;;;22.40;55.40;;;;;;2346466;53;21618;-71
2021/08/27 12:10:02;;;;;;;3.55;0.70;;;22.40;54.80;;;;;;2341862;53;20962;-71
2021/08/27 12:12:36;;;;;;;2.00;0.73;;;22.50;55.40;;;;;;2361290;52;21498;-71
2021/08/27 12:15:03;;;;;;;2.47;0.82;;;22.50;55.10;;;;;;2345046;53;20953;-71
2021/08/27 12:17:29;;;;;;;2.40;0.95;;;22.60;55.50;;;;;;2313217;53;21008;-71
2021/08/27 12:19:58;;;;;;;2.25;0.80;;;22.60;55.30;;;;;;2351276;53;20931;-72
2021/08/27 12:22:29;;;;;;;1.80;0.80;;;22.70;55.20;;;;;;2336251;53;20936;-71
2021/08/27 12:24:55;;;;;;;2.80;1.00;;;22.70;55.00;;;;;;2338446;53;20977;-69
2021/08/27 12:27:22;;;;;;;3.80;1.00;;;22.80;55.10;;;;;;2351253;53;21378;-71
2021/08/27 12:30:11;;;;;;;3.03;1.02;;;22.80;55.10;;;;;;2354081;52;20918;-71
2021/08/27 12:32:40;;;;;;;2.25;0.88;;;23.00;54.60;;;;;;2345605;53;20906;-71
2021/08/27 12:35:11;;;;;;;3.47;1.23;;;23.00;55.20;;;;;;2342862;53;22032;-73
2021/08/27 12:37:38;;;;;;;1.27;0.60;;;23.10;54.50;;;;;;2317560;53;20975;-68
2021/08/27 12:40:15;;;;;;;2.25;0.88;;;23.10;54.50;;;;;;2332155;53;20926;-72
2021/08/27 12:42:56;;;;;;;1.92;0.80;;;23.10;54.20;;;;;;2337745;53;20949;-71
2021/08/27 12:45:22;;;;;;;2.22;0.73;;;23.10;53.60;;;;;;2347152;53;20922;-69
2021/08/27 12:47:51;;;;;;;2.12;0.85;;;23.20;54.60;;;;;;2492732;52;20931;-70
2021/08/27 12:50:18;;;;;;;1.73;0.80;;;23.20;54.40;;;;;;2348508;53;20954;-68
2021/08/27 12:53:04;;;;;;;3.10;0.82;;;23.30;54.20;;;;;;2348568;53;21205;-69
2021/08/27 12:55:31;;;;;;;2.42;0.80;;;23.40;53.30;;;;;;2348356;53;20978;-70
2021/08/27 12:57:57;;;;;;;1.92;0.85;;;23.40;54.10;;;;;;2348070;53;20919;-70
2021/08/27 13:00:26;;;;;;;2.25;0.80;;;23.50;54.00;;;;;;2597664;52;20945;-71
2021/08/27 13:02:54;;;;;;;2.30;0.82;;;23.50;53.70;;;;;;2360717;52;20991;-74
2021/08/27 13:05:53;;;;;;;1.90;0.70;;;23.60;53.40;;;;;;2348863;53;20919;-70
2021/08/27 13:08:20;;;;;;;2.70;1.12;;;23.60;52.60;;;;;;2359436;52;20990;-70
2021/08/27 13:11:06;;;;;;;2.25;0.80;;;23.70;53.60;;;;;;2358375;53;20943;-69